sensor_id;sensor_type;location;lat;lon;timestamp;temperature;humidity
69382;DHT22;56560;50.692;12.844;2023-06-26T00:00:46;15.10;83.50
69382;DHT22;56560;50.692;12.844;2023-06-26T00:03:13;15.00;83.90
69382;DHT22;56560;50.692;12.844;2023-06-26T00:05:40;15.00;84.40
69382;DHT22;56560;50.692;12.844;2023-06-26T00:08:07;15.00;83.90
69382;DHT22;56560;50.692;12.844;2023-06-26T00:10:34;15.00;83.80
69382;DHT22;56560;50.692;12.844;2023-06-26T00:12:59;14.90;84.00
69382;DHT22;56560;50.692;12.844;2023-06-26T00:15:25;14.90;84.20
69382;DHT22;56560;50.692;12.844;2023-06-26T00:17:51;14.90;84.40
69382;DHT22;56560;50.692;12.844;2023-06-26T00:20:16;14.90;84.60
69382;DHT22;56560;50.692;12.844;2023-06-26T00:22:44;14.90;85.10
69382;DHT22;56560;50.692;12.844;2023-06-26T00:25:10;14.80;85.00
69382;DHT22;56560;50.692;12.844;2023-06-26T00:27:36;14.80;84.70
69382;DHT22;56560;50.692;12.844;2023-06-26T00:30:02;14.90;84.50
69382;DHT22;56560;50.692;12.844;2023-06-26T00:32:27;14.90;84.30
69382;DHT22;56560;50.692;12.844;2023-06-26T00:34:53;14.80;84.70
69382;DHT22;56560;50.692;12.844;2023-06-26T00:37:18;14.80;84.90
69382;DHT22;56560;50.692;12.844;2023-06-26T00:39:44;14.80;84.30
69382;DHT22;56560;50.692;12.844;2023-06-26T00:42:10;14.80;84.40
69382;DHT22;56560;50.692;12.844;2023-06-26T00:44:35;14.90;84.00
69382;DHT22;56560;50.692;12.844;2023-06-26T00:47:01;14.90;84.00
69382;DHT22;56560;50.692;12.844;2023-06-26T00:49:27;14.80;84.10
69382;DHT22;56560;50.692;12.844;2023-06-26T00:51:53;14.90;84.20
69382;DHT22;56560;50.692;12.844;2023-06-26T00:54:19;14.90;84.30
69382;DHT22;56560;50.692;12.844;2023-06-26T00:56:48;14.90;84.50
69382;DHT22;56560;50.692;12.844;2023-06-26T00:59:13;14.90;84.20
69382;DHT22;56560;50.692;12.844;2023-06-26T01:01:39;14.90;84.20
69382;DHT22;56560;50.692;12.844;2023-06-26T01:04:05;14.90;84.30
69382;DHT22;56560;50.692;12.844;2023-06-26T01:06:32;15.00;84.20
69382;DHT22;56560;50.692;12.844;2023-06-26T01:09:01;15.00;84.00
69382;DHT22;56560;50.692;12.844;2023-06-26T01:11:27;15.10;83.20
69382;DHT22;56560;50.692;12.844;2023-06-26T01:13:52;15.20;83.10
69382;DHT22;56560;50.692;12.844;2023-06-26T01:16:20;15.30;83.10
69382;DHT22;56560;50.692;12.844;2023-06-26T01:18:47;15.30;82.50
69382;DHT22;56560;50.692;12.844;2023-06-26T01:21:14;15.40;82.10
69382;DHT22;56560;50.692;12.844;2023-06-26T01:24:07;15.40;82.00
69382;DHT22;56560;50.692;12.844;2023-06-26T01:26:36;15.40;82.40
69382;DHT22;56560;50.692;12.844;2023-06-26T01:29:04;15.40;82.40
69382;DHT22;56560;50.692;12.844;2023-06-26T01:31:31;15.40;82.20
69382;DHT22;56560;50.692;12.844;2023-06-26T01:33:59;15.40;82.40
69382;DHT22;56560;50.692;12.844;2023-06-26T01:36:26;15.40;82.50
69382;DHT22;56560;50.692;12.844;2023-06-26T01:38:52;15.40;82.40
69382;DHT22;56560;50.692;12.844;2023-06-26T01:41:18;15.40;82.40
69382;DHT22;56560;50.692;12.844;2023-06-26T01:44:07;15.40;82.90
69382;DHT22;56560;50.692;12.844;2023-06-26T01:46:54;15.50;83.50
69382;DHT22;56560;50.692;12.844;2023-06-26T01:52:19;15.60;82.40
69382;DHT22;56560;50.692;12.844;2023-06-26T01:55:21;15.60;82.30
69382;DHT22;56560;50.692;12.844;2023-06-26T01:57:48;15.70;82.30
69382;DHT22;56560;50.692;12.844;2023-06-26T02:00:18;15.70;82.10
69382;DHT22;56560;50.692;12.844;2023-06-26T02:02:45;15.70;82.20
69382;DHT22;56560;50.692;12.844;2023-06-26T02:05:11;15.70;82.20
69382;DHT22;56560;50.692;12.844;2023-06-26T02:07:37;15.70;82.30
69382;DHT22;56560;50.692;12.844;2023-06-26T02:10:03;15.70;82.30
69382;DHT22;56560;50.692;12.844;2023-06-26T02:12:29;15.80;82.10
69382;DHT22;56560;50.692;12.844;2023-06-26T02:14:55;15.80;82.00
69382;DHT22;56560;50.692;12.844;2023-06-26T02:17:20;15.70;82.10
69382;DHT22;56560;50.692;12.844;2023-06-26T02:19:46;15.70;82.40
69382;DHT22;56560;50.692;12.844;2023-06-26T02:22:15;15.60;83.00
69382;DHT22;56560;50.692;12.844;2023-06-26T02:24:42;15.60;83.00
69382;DHT22;56560;50.692;12.844;2023-06-26T02:27:08;15.50;83.20
69382;DHT22;56560;50.692;12.844;2023-06-26T02:29:34;15.50;83.40
69382;DHT22;56560;50.692;12.844;2023-06-26T02:32:00;15.60;83.30
69382;DHT22;56560;50.692;12.844;2023-06-26T02:34:26;15.70;83.00
69382;DHT22;56560;50.692;12.844;2023-06-26T02:36:51;15.80;82.70
69382;DHT22;56560;50.692;12.844;2023-06-26T02:39:20;15.90;82.40
69382;DHT22;56560;50.692;12.844;2023-06-26T02:41:45;16.00;82.30
69382;DHT22;56560;50.692;12.844;2023-06-26T02:44:11;16.00;82.10
69382;DHT22;56560;50.692;12.844;2023-06-26T02:46:38;16.00;81.80
69382;DHT22;56560;50.692;12.844;2023-06-26T02:49:03;16.10;81.80
69382;DHT22;56560;50.692;12.844;2023-06-26T02:51:31;16.10;81.90
69382;DHT22;56560;50.692;12.844;2023-06-26T02:53:57;16.10;82.00
69382;DHT22;56560;50.692;12.844;2023-06-26T02:56:22;16.10;81.90
69382;DHT22;56560;50.692;12.844;2023-06-26T02:58:48;16.20;81.70
69382;DHT22;56560;50.692;12.844;2023-06-26T03:01:13;16.20;81.80
69382;DHT22;56560;50.692;12.844;2023-06-26T03:03:41;16.20;81.80
69382;DHT22;56560;50.692;12.844;2023-06-26T03:06:07;16.20;82.00
69382;DHT22;56560;50.692;12.844;2023-06-26T03:08:35;16.20;82.00
69382;DHT22;56560;50.692;12.844;2023-06-26T03:11:01;16.10;82.30
69382;DHT22;56560;50.692;12.844;2023-06-26T03:13:27;16.10;82.40
69382;DHT22;56560;50.692;12.844;2023-06-26T03:15:52;16.10;82.50
69382;DHT22;56560;50.692;12.844;2023-06-26T03:18:18;16.10;82.60
69382;DHT22;56560;50.692;12.844;2023-06-26T03:20:44;16.10;82.90
69382;DHT22;56560;50.692;12.844;2023-06-26T03:23:09;16.20;83.00
69382;DHT22;56560;50.692;12.844;2023-06-26T03:25:35;16.20;82.90
69382;DHT22;56560;50.692;12.844;2023-06-26T03:28:00;16.30;82.50
69382;DHT22;56560;50.692;12.844;2023-06-26T03:30:26;16.40;82.20
69382;DHT22;56560;50.692;12.844;2023-06-26T03:32:52;16.50;81.80
69382;DHT22;56560;50.692;12.844;2023-06-26T03:35:17;16.60;81.80
69382;DHT22;56560;50.692;12.844;2023-06-26T03:37:43;16.70;81.40
69382;DHT22;56560;50.692;12.844;2023-06-26T03:40:09;16.80;81.00
69382;DHT22;56560;50.692;12.844;2023-06-26T03:42:35;17.00;80.50
69382;DHT22;56560;50.692;12.844;2023-06-26T03:45:00;17.10;80.30
69382;DHT22;56560;50.692;12.844;2023-06-26T03:47:26;17.20;80.00
69382;DHT22;56560;50.692;12.844;2023-06-26T03:49:52;17.20;80.10
69382;DHT22;56560;50.692;12.844;2023-06-26T03:52:17;17.20;80.00
69382;DHT22;56560;50.692;12.844;2023-06-26T03:54:43;17.30;79.80
69382;DHT22;56560;50.692;12.844;2023-06-26T03:57:08;17.30;79.80
69382;DHT22;56560;50.692;12.844;2023-06-26T03:59:36;17.30;79.70
69382;DHT22;56560;50.692;12.844;2023-06-26T04:02:01;17.40;79.70
69382;DHT22;56560;50.692;12.844;2023-06-26T04:04:27;17.40;80.00
69382;DHT22;56560;50.692;12.844;2023-06-26T04:06:53;17.40;80.00
69382;DHT22;56560;50.692;12.844;2023-06-26T04:09:19;17.50;80.20
69382;DHT22;56560;50.692;12.844;2023-06-26T04:11:45;17.60;80.00
69382;DHT22;56560;50.692;12.844;2023-06-26T04:14:10;17.70;79.70
69382;DHT22;56560;50.692;12.844;2023-06-26T04:16:36;17.90;79.20
69382;DHT22;56560;50.692;12.844;2023-06-26T04:19:01;17.90;79.00
69382;DHT22;56560;50.692;12.844;2023-06-26T04:21:28;17.90;79.00
69382;DHT22;56560;50.692;12.844;2023-06-26T04:23:53;17.90;79.10
69382;DHT22;56560;50.692;12.844;2023-06-26T04:26:19;17.80;79.30
69382;DHT22;56560;50.692;12.844;2023-06-26T04:28:45;17.90;79.10
69382;DHT22;56560;50.692;12.844;2023-06-26T04:31:11;17.90;79.30
69382;DHT22;56560;50.692;12.844;2023-06-26T04:33:37;18.00;78.80
69382;DHT22;56560;50.692;12.844;2023-06-26T04:36:06;18.10;78.70
69382;DHT22;56560;50.692;12.844;2023-06-26T04:38:32;18.20;77.90
69382;DHT22;56560;50.692;12.844;2023-06-26T04:40:59;18.50;75.90
69382;DHT22;56560;50.692;12.844;2023-06-26T04:43:25;18.70;76.10
69382;DHT22;56560;50.692;12.844;2023-06-26T04:45:50;18.90;71.80
69382;DHT22;56560;50.692;12.844;2023-06-26T04:48:16;19.00;71.00
69382;DHT22;56560;50.692;12.844;2023-06-26T04:50:42;19.10;70.40
69382;DHT22;56560;50.692;12.844;2023-06-26T04:53:08;19.40;68.80
69382;DHT22;56560;50.692;12.844;2023-06-26T04:55:34;19.50;67.70
69382;DHT22;56560;50.692;12.844;2023-06-26T04:58:00;19.70;67.30
69382;DHT22;56560;50.692;12.844;2023-06-26T05:00:25;19.80;66.60
69382;DHT22;56560;50.692;12.844;2023-06-26T05:02:51;19.90;66.00
69382;DHT22;56560;50.692;12.844;2023-06-26T05:05:26;20.10;65.80
69382;DHT22;56560;50.692;12.844;2023-06-26T05:07:55;20.20;64.80
69382;DHT22;56560;50.692;12.844;2023-06-26T05:10:22;20.40;65.00
69382;DHT22;56560;50.692;12.844;2023-06-26T05:12:47;20.50;64.40
69382;DHT22;56560;50.692;12.844;2023-06-26T05:15:13;20.60;64.30
69382;DHT22;56560;50.692;12.844;2023-06-26T05:17:39;20.70;63.90
69382;DHT22;56560;50.692;12.844;2023-06-26T05:20:05;20.80;63.10
69382;DHT22;56560;50.692;12.844;2023-06-26T05:22:32;21.00;63.10
69382;DHT22;56560;50.692;12.844;2023-06-26T05:24:59;21.10;61.90
69382;DHT22;56560;50.692;12.844;2023-06-26T05:27:26;21.10;62.40
69382;DHT22;56560;50.692;12.844;2023-06-26T05:29:52;21.20;61.00
69382;DHT22;56560;50.692;12.844;2023-06-26T05:32:18;21.30;61.30
69382;DHT22;56560;50.692;12.844;2023-06-26T05:34:48;21.50;61.00
69382;DHT22;56560;50.692;12.844;2023-06-26T05:37:22;21.60;60.50
69382;DHT22;56560;50.692;12.844;2023-06-26T05:39:50;21.70;60.60
69382;DHT22;56560;50.692;12.844;2023-06-26T05:42:16;21.80;60.10
69382;DHT22;56560;50.692;12.844;2023-06-26T05:44:41;22.00;58.80
69382;DHT22;56560;50.692;12.844;2023-06-26T05:47:07;22.10;58.90
69382;DHT22;56560;50.692;12.844;2023-06-26T05:49:33;22.20;58.90
69382;DHT22;56560;50.692;12.844;2023-06-26T05:51:59;22.30;57.70
69382;DHT22;56560;50.692;12.844;2023-06-26T05:54:25;22.40;58.10
69382;DHT22;56560;50.692;12.844;2023-06-26T05:56:57;22.50;57.90
69382;DHT22;56560;50.692;12.844;2023-06-26T05:59:25;22.70;58.00
69382;DHT22;56560;50.692;12.844;2023-06-26T06:01:52;22.80;56.70
69382;DHT22;56560;50.692;12.844;2023-06-26T06:04:17;22.80;57.40
69382;DHT22;56560;50.692;12.844;2023-06-26T06:06:43;22.90;57.20
69382;DHT22;56560;50.692;12.844;2023-06-26T06:09:09;23.10;56.50
69382;DHT22;56560;50.692;12.844;2023-06-26T06:11:34;23.30;56.70
69382;DHT22;56560;50.692;12.844;2023-06-26T06:14:00;23.50;56.10
69382;DHT22;56560;50.692;12.844;2023-06-26T06:16:26;23.60;55.70
69382;DHT22;56560;50.692;12.844;2023-06-26T06:18:54;23.70;55.50
69382;DHT22;56560;50.692;12.844;2023-06-26T06:21:20;23.80;54.40
69382;DHT22;56560;50.692;12.844;2023-06-26T06:23:45;24.00;55.10
69382;DHT22;56560;50.692;12.844;2023-06-26T06:26:12;24.20;54.20
69382;DHT22;56560;50.692;12.844;2023-06-26T06:28:38;24.30;54.00
69382;DHT22;56560;50.692;12.844;2023-06-26T06:31:04;24.50;54.40
69382;DHT22;56560;50.692;12.844;2023-06-26T06:33:30;24.60;54.00
69382;DHT22;56560;50.692;12.844;2023-06-26T06:35:55;24.70;53.90
69382;DHT22;56560;50.692;12.844;2023-06-26T06:38:21;24.80;53.20
69382;DHT22;56560;50.692;12.844;2023-06-26T06:40:47;24.80;51.70
69382;DHT22;56560;50.692;12.844;2023-06-26T06:43:12;24.80;50.70
69382;DHT22;56560;50.692;12.844;2023-06-26T06:45:38;24.90;49.70
69382;DHT22;56560;50.692;12.844;2023-06-26T06:48:04;25.20;51.80
69382;DHT22;56560;50.692;12.844;2023-06-26T06:50:30;25.50;50.20
69382;DHT22;56560;50.692;12.844;2023-06-26T06:52:56;25.90;50.10
69382;DHT22;56560;50.692;12.844;2023-06-26T06:55:22;26.00;48.40
69382;DHT22;56560;50.692;12.844;2023-06-26T06:57:48;26.20;48.00
69382;DHT22;56560;50.692;12.844;2023-06-26T07:00:14;26.30;47.50
69382;DHT22;56560;50.692;12.844;2023-06-26T07:02:42;26.20;46.70
69382;DHT22;56560;50.692;12.844;2023-06-26T07:05:09;26.20;48.10
69382;DHT22;56560;50.692;12.844;2023-06-26T07:07:36;26.10;47.30
69382;DHT22;56560;50.692;12.844;2023-06-26T07:10:04;26.20;47.50
69382;DHT22;56560;50.692;12.844;2023-06-26T07:12:30;26.30;47.80
69382;DHT22;56560;50.692;12.844;2023-06-26T07:14:56;26.40;46.80
69382;DHT22;56560;50.692;12.844;2023-06-26T07:17:22;26.50;47.80
69382;DHT22;56560;50.692;12.844;2023-06-26T07:19:49;26.50;46.70
69382;DHT22;56560;50.692;12.844;2023-06-26T07:22:15;26.60;47.10
69382;DHT22;56560;50.692;12.844;2023-06-26T07:24:41;26.70;47.50
69382;DHT22;56560;50.692;12.844;2023-06-26T07:27:06;26.60;46.10
69382;DHT22;56560;50.692;12.844;2023-06-26T07:29:32;26.70;47.00
69382;DHT22;56560;50.692;12.844;2023-06-26T07:31:58;26.70;47.50
69382;DHT22;56560;50.692;12.844;2023-06-26T07:34:24;26.90;47.60
69382;DHT22;56560;50.692;12.844;2023-06-26T07:36:50;27.00;46.70
69382;DHT22;56560;50.692;12.844;2023-06-26T07:39:15;27.10;46.60
69382;DHT22;56560;50.692;12.844;2023-06-26T07:41:41;27.20;47.90
69382;DHT22;56560;50.692;12.844;2023-06-26T07:44:06;27.20;46.20
69382;DHT22;56560;50.692;12.844;2023-06-26T07:46:32;27.10;46.60
69382;DHT22;56560;50.692;12.844;2023-06-26T07:48:58;27.10;45.90
69382;DHT22;56560;50.692;12.844;2023-06-26T07:51:23;27.20;46.00
69382;DHT22;56560;50.692;12.844;2023-06-26T07:53:49;27.40;46.20
69382;DHT22;56560;50.692;12.844;2023-06-26T07:56:15;27.50;45.20
69382;DHT22;56560;50.692;12.844;2023-06-26T07:58:40;27.60;45.60
69382;DHT22;56560;50.692;12.844;2023-06-26T08:01:06;27.70;45.20
69382;DHT22;56560;50.692;12.844;2023-06-26T08:03:32;27.80;44.10
69382;DHT22;56560;50.692;12.844;2023-06-26T08:05:57;27.80;44.30
69382;DHT22;56560;50.692;12.844;2023-06-26T08:08:23;27.90;45.10
69382;DHT22;56560;50.692;12.844;2023-06-26T08:10:48;28.00;45.10
69382;DHT22;56560;50.692;12.844;2023-06-26T08:13:14;28.00;44.40
69382;DHT22;56560;50.692;12.844;2023-06-26T08:15:40;28.10;44.00
69382;DHT22;56560;50.692;12.844;2023-06-26T08:18:05;27.90;43.40
69382;DHT22;56560;50.692;12.844;2023-06-26T08:20:31;28.00;43.30
69382;DHT22;56560;50.692;12.844;2023-06-26T08:22:57;28.00;42.90
69382;DHT22;56560;50.692;12.844;2023-06-26T08:25:22;27.80;43.50
69382;DHT22;56560;50.692;12.844;2023-06-26T08:27:48;27.90;42.40
69382;DHT22;56560;50.692;12.844;2023-06-26T08:30:14;28.10;42.00
69382;DHT22;56560;50.692;12.844;2023-06-26T08:32:40;28.30;42.80
69382;DHT22;56560;50.692;12.844;2023-06-26T08:35:06;28.40;44.00
69382;DHT22;56560;50.692;12.844;2023-06-26T08:37:32;28.50;42.60
69382;DHT22;56560;50.692;12.844;2023-06-26T08:40:01;28.60;42.30
69382;DHT22;56560;50.692;12.844;2023-06-26T08:42:27;28.70;41.50
69382;DHT22;56560;50.692;12.844;2023-06-26T08:44:52;28.60;41.90
69382;DHT22;56560;50.692;12.844;2023-06-26T08:47:19;28.60;42.30
69382;DHT22;56560;50.692;12.844;2023-06-26T08:50:20;28.70;42.90
69382;DHT22;56560;50.692;12.844;2023-06-26T08:52:56;28.90;41.60
69382;DHT22;56560;50.692;12.844;2023-06-26T08:55:24;28.90;39.70
69382;DHT22;56560;50.692;12.844;2023-06-26T08:57:52;28.80;40.10
69382;DHT22;56560;50.692;12.844;2023-06-26T09:00:19;28.80;40.60
69382;DHT22;56560;50.692;12.844;2023-06-26T09:02:45;28.90;41.70
69382;DHT22;56560;50.692;12.844;2023-06-26T09:05:11;29.00;41.90
69382;DHT22;56560;50.692;12.844;2023-06-26T09:07:37;29.10;40.70
69382;DHT22;56560;50.692;12.844;2023-06-26T09:10:05;29.10;39.30
69382;DHT22;56560;50.692;12.844;2023-06-26T09:12:31;29.10;39.80
69382;DHT22;56560;50.692;12.844;2023-06-26T09:14:57;29.10;39.90
69382;DHT22;56560;50.692;12.844;2023-06-26T09:17:33;29.20;40.40
69382;DHT22;56560;50.692;12.844;2023-06-26T09:20:00;29.20;39.80
69382;DHT22;56560;50.692;12.844;2023-06-26T09:22:26;29.10;39.50
69382;DHT22;56560;50.692;12.844;2023-06-26T09:24:55;29.20;39.80
69382;DHT22;56560;50.692;12.844;2023-06-26T09:27:23;29.40;39.20
69382;DHT22;56560;50.692;12.844;2023-06-26T09:29:55;29.50;40.20
69382;DHT22;56560;50.692;12.844;2023-06-26T09:32:27;29.60;39.90
69382;DHT22;56560;50.692;12.844;2023-06-26T09:34:53;29.70;39.00
69382;DHT22;56560;50.692;12.844;2023-06-26T09:37:21;29.70;39.20
69382;DHT22;56560;50.692;12.844;2023-06-26T09:39:48;29.70;38.10
69382;DHT22;56560;50.692;12.844;2023-06-26T09:42:15;29.70;39.10
69382;DHT22;56560;50.692;12.844;2023-06-26T09:44:44;29.80;38.80
69382;DHT22;56560;50.692;12.844;2023-06-26T09:47:11;29.70;37.90
69382;DHT22;56560;50.692;12.844;2023-06-26T09:49:41;29.50;39.10
69382;DHT22;56560;50.692;12.844;2023-06-26T09:52:17;29.80;38.80
69382;DHT22;56560;50.692;12.844;2023-06-26T09:54:44;29.90;37.90
69382;DHT22;56560;50.692;12.844;2023-06-26T09:57:16;30.10;36.60
69382;DHT22;56560;50.692;12.844;2023-06-26T09:59:45;30.10;36.60
69382;DHT22;56560;50.692;12.844;2023-06-26T10:02:11;30.10;36.60
69382;DHT22;56560;50.692;12.844;2023-06-26T10:04:37;30.10;35.80
69382;DHT22;56560;50.692;12.844;2023-06-26T10:07:10;30.20;35.00
69382;DHT22;56560;50.692;12.844;2023-06-26T10:09:42;30.40;35.00
69382;DHT22;56560;50.692;12.844;2023-06-26T10:12:32;30.50;35.80
69382;DHT22;56560;50.692;12.844;2023-06-26T10:14:59;30.60;35.80
69382;DHT22;56560;50.692;12.844;2023-06-26T10:17:34;30.60;35.20
69382;DHT22;56560;50.692;12.844;2023-06-26T10:20:05;30.50;35.70
69382;DHT22;56560;50.692;12.844;2023-06-26T10:22:55;30.80;35.60
69382;DHT22;56560;50.692;12.844;2023-06-26T10:25:23;31.10;35.80
69382;DHT22;56560;50.692;12.844;2023-06-26T10:28:00;31.10;35.10
69382;DHT22;56560;50.692;12.844;2023-06-26T10:30:33;31.30;34.60
69382;DHT22;56560;50.692;12.844;2023-06-26T10:33:00;31.40;34.20
69382;DHT22;56560;50.692;12.844;2023-06-26T10:35:27;31.40;35.90
69382;DHT22;56560;50.692;12.844;2023-06-26T10:38:00;31.40;34.70
69382;DHT22;56560;50.692;12.844;2023-06-26T10:40:43;31.50;34.60
69382;DHT22;56560;50.692;12.844;2023-06-26T10:43:15;31.80;33.90
69382;DHT22;56560;50.692;12.844;2023-06-26T10:45:47;31.70;33.30
69382;DHT22;56560;50.692;12.844;2023-06-26T10:48:17;31.60;33.60
69382;DHT22;56560;50.692;12.844;2023-06-26T10:50:43;31.40;33.50
69382;DHT22;56560;50.692;12.844;2023-06-26T10:55:59;31.80;34.30
69382;DHT22;56560;50.692;12.844;2023-06-26T11:03:38;31.90;33.70
69382;DHT22;56560;50.692;12.844;2023-06-26T11:06:10;32.10;34.10
69382;DHT22;56560;50.692;12.844;2023-06-26T11:08:52;31.90;33.90
69382;DHT22;56560;50.692;12.844;2023-06-26T11:11:22;32.00;34.50
69382;DHT22;56560;50.692;12.844;2023-06-26T11:14:08;32.20;33.10
69382;DHT22;56560;50.692;12.844;2023-06-26T11:16:34;32.50;34.30
69382;DHT22;56560;50.692;12.844;2023-06-26T11:19:00;32.70;33.80
69382;DHT22;56560;50.692;12.844;2023-06-26T11:21:26;32.60;33.10
69382;DHT22;56560;50.692;12.844;2023-06-26T11:23:53;32.80;33.60
69382;DHT22;56560;50.692;12.844;2023-06-26T11:26:23;32.90;32.60
69382;DHT22;56560;50.692;12.844;2023-06-26T11:28:55;32.50;33.10
69382;DHT22;56560;50.692;12.844;2023-06-26T11:33:51;32.50;33.00
69382;DHT22;56560;50.692;12.844;2023-06-26T11:36:16;32.50;32.80
69382;DHT22;56560;50.692;12.844;2023-06-26T11:38:42;32.60;32.30
69382;DHT22;56560;50.692;12.844;2023-06-26T11:41:08;32.60;33.00
69382;DHT22;56560;50.692;12.844;2023-06-26T11:43:34;32.90;33.20
69382;DHT22;56560;50.692;12.844;2023-06-26T11:46:00;33.40;33.50
69382;DHT22;56560;50.692;12.844;2023-06-26T11:48:29;33.70;31.30
69382;DHT22;56560;50.692;12.844;2023-06-26T11:50:55;34.50;30.60
69382;DHT22;56560;50.692;12.844;2023-06-26T11:53:21;35.20;28.50
69382;DHT22;56560;50.692;12.844;2023-06-26T11:55:47;35.90;28.50
69382;DHT22;56560;50.692;12.844;2023-06-26T11:58:26;36.70;27.60
69382;DHT22;56560;50.692;12.844;2023-06-26T12:01:24;37.30;27.30
69382;DHT22;56560;50.692;12.844;2023-06-26T12:03:59;38.40;27.00
69382;DHT22;56560;50.692;12.844;2023-06-26T12:06:26;39.00;27.60
69382;DHT22;56560;50.692;12.844;2023-06-26T12:08:52;39.60;27.10
69382;DHT22;56560;50.692;12.844;2023-06-26T12:11:18;39.90;26.90
69382;DHT22;56560;50.692;12.844;2023-06-26T12:13:45;40.30;25.90
69382;DHT22;56560;50.692;12.844;2023-06-26T12:16:12;40.40;25.70
69382;DHT22;56560;50.692;12.844;2023-06-26T12:18:39;40.50;26.00
69382;DHT22;56560;50.692;12.844;2023-06-26T12:21:05;40.10;25.50
69382;DHT22;56560;50.692;12.844;2023-06-26T12:23:39;40.40;25.60
69382;DHT22;56560;50.692;12.844;2023-06-26T12:26:21;41.20;25.40
69382;DHT22;56560;50.692;12.844;2023-06-26T12:28:47;42.00;24.20
69382;DHT22;56560;50.692;12.844;2023-06-26T12:31:16;42.20;24.80
69382;DHT22;56560;50.692;12.844;2023-06-26T12:33:43;42.20;24.00
69382;DHT22;56560;50.692;12.844;2023-06-26T12:36:12;42.30;24.60
69382;DHT22;56560;50.692;12.844;2023-06-26T12:38:39;42.50;23.40
69382;DHT22;56560;50.692;12.844;2023-06-26T12:41:04;42.30;24.00
69382;DHT22;56560;50.692;12.844;2023-06-26T12:43:30;42.00;23.70
69382;DHT22;56560;50.692;12.844;2023-06-26T12:45:56;42.00;24.10
69382;DHT22;56560;50.692;12.844;2023-06-26T12:48:35;41.70;24.30
69382;DHT22;56560;50.692;12.844;2023-06-26T12:51:11;42.10;24.20
69382;DHT22;56560;50.692;12.844;2023-06-26T12:53:37;42.00;24.10
69382;DHT22;56560;50.692;12.844;2023-06-26T12:56:05;41.60;24.40
69382;DHT22;56560;50.692;12.844;2023-06-26T12:58:32;40.90;25.00
69382;DHT22;56560;50.692;12.844;2023-06-26T13:00:57;40.70;25.20
69382;DHT22;56560;50.692;12.844;2023-06-26T13:03:24;41.90;25.10
69382;DHT22;56560;50.692;12.844;2023-06-26T13:05:49;42.60;23.90
69382;DHT22;56560;50.692;12.844;2023-06-26T13:08:16;42.30;24.00
69382;DHT22;56560;50.692;12.844;2023-06-26T13:10:44;42.20;24.60
69382;DHT22;56560;50.692;12.844;2023-06-26T13:13:11;42.70;23.70
69382;DHT22;56560;50.692;12.844;2023-06-26T13:15:36;42.90;24.20
69382;DHT22;56560;50.692;12.844;2023-06-26T13:18:02;42.30;24.40
69382;DHT22;56560;50.692;12.844;2023-06-26T13:20:28;41.50;24.80
69382;DHT22;56560;50.692;12.844;2023-06-26T13:22:54;40.90;25.40
69382;DHT22;56560;50.692;12.844;2023-06-26T13:25:21;41.90;25.30
69382;DHT22;56560;50.692;12.844;2023-06-26T13:27:47;42.60;25.20
69382;DHT22;56560;50.692;12.844;2023-06-26T13:30:13;43.30;24.10
69382;DHT22;56560;50.692;12.844;2023-06-26T13:32:39;44.00;24.40
69382;DHT22;56560;50.692;12.844;2023-06-26T13:35:05;44.40;24.30
69382;DHT22;56560;50.692;12.844;2023-06-26T13:37:31;44.50;23.60
69382;DHT22;56560;50.692;12.844;2023-06-26T13:40:00;43.80;23.00
69382;DHT22;56560;50.692;12.844;2023-06-26T13:42:27;43.10;23.40
69382;DHT22;56560;50.692;12.844;2023-06-26T13:44:52;43.80;23.60
69382;DHT22;56560;50.692;12.844;2023-06-26T13:47:18;44.00;22.80
69382;DHT22;56560;50.692;12.844;2023-06-26T13:49:44;44.50;22.20
69382;DHT22;56560;50.692;12.844;2023-06-26T13:52:09;44.40;22.50
69382;DHT22;56560;50.692;12.844;2023-06-26T13:54:36;44.30;22.80
69382;DHT22;56560;50.692;12.844;2023-06-26T13:57:02;44.60;22.90
69382;DHT22;56560;50.692;12.844;2023-06-26T13:59:30;44.50;22.60
69382;DHT22;56560;50.692;12.844;2023-06-26T14:01:56;44.00;22.80
69382;DHT22;56560;50.692;12.844;2023-06-26T14:04:22;43.40;23.00
69382;DHT22;56560;50.692;12.844;2023-06-26T14:06:48;43.20;23.00
69382;DHT22;56560;50.692;12.844;2023-06-26T14:09:13;42.10;23.60
69382;DHT22;56560;50.692;12.844;2023-06-26T14:11:39;41.70;24.30
69382;DHT22;56560;50.692;12.844;2023-06-26T14:14:05;41.90;23.40
69382;DHT22;56560;50.692;12.844;2023-06-26T14:16:30;42.00;23.60
69382;DHT22;56560;50.692;12.844;2023-06-26T14:18:57;42.50;23.40
69382;DHT22;56560;50.692;12.844;2023-06-26T14:21:23;41.60;23.40
69382;DHT22;56560;50.692;12.844;2023-06-26T14:23:48;41.70;24.20
69382;DHT22;56560;50.692;12.844;2023-06-26T14:26:14;42.70;23.40
69382;DHT22;56560;50.692;12.844;2023-06-26T14:28:40;43.20;23.20
69382;DHT22;56560;50.692;12.844;2023-06-26T14:31:06;44.00;23.30
69382;DHT22;56560;50.692;12.844;2023-06-26T14:33:31;44.20;22.00
69382;DHT22;56560;50.692;12.844;2023-06-26T14:35:57;44.20;22.00
69382;DHT22;56560;50.692;12.844;2023-06-26T14:38:23;43.70;22.10
69382;DHT22;56560;50.692;12.844;2023-06-26T14:40:48;43.90;22.80
69382;DHT22;56560;50.692;12.844;2023-06-26T14:43:14;44.00;21.60
69382;DHT22;56560;50.692;12.844;2023-06-26T14:45:40;44.70;22.20
69382;DHT22;56560;50.692;12.844;2023-06-26T14:48:05;45.50;21.10
69382;DHT22;56560;50.692;12.844;2023-06-26T14:50:31;45.50;21.60
69382;DHT22;56560;50.692;12.844;2023-06-26T14:52:56;45.40;21.20
69382;DHT22;56560;50.692;12.844;2023-06-26T14:55:22;45.30;21.30
69382;DHT22;56560;50.692;12.844;2023-06-26T14:57:48;45.20;21.70
69382;DHT22;56560;50.692;12.844;2023-06-26T15:00:14;44.90;21.40
69382;DHT22;56560;50.692;12.844;2023-06-26T15:02:40;44.00;21.80
69382;DHT22;56560;50.692;12.844;2023-06-26T15:05:07;42.80;22.40
69382;DHT22;56560;50.692;12.844;2023-06-26T15:07:33;42.80;22.70
69382;DHT22;56560;50.692;12.844;2023-06-26T15:09:59;42.40;22.60
69382;DHT22;56560;50.692;12.844;2023-06-26T15:12:24;41.60;23.90
69382;DHT22;56560;50.692;12.844;2023-06-26T15:14:50;40.60;23.90
69382;DHT22;56560;50.692;12.844;2023-06-26T15:17:17;39.50;24.90
69382;DHT22;56560;50.692;12.844;2023-06-26T15:19:42;38.40;25.90
69382;DHT22;56560;50.692;12.844;2023-06-26T15:22:08;37.10;27.10
69382;DHT22;56560;50.692;12.844;2023-06-26T15:24:34;35.90;28.40
69382;DHT22;56560;50.692;12.844;2023-06-26T15:26:59;35.20;29.30
69382;DHT22;56560;50.692;12.844;2023-06-26T15:29:30;34.70;29.70